Straumvik — LEYJ — position and weather

sailwx.info

Track history (hours):
 
Tides and Currents Weather Stations Pressure Air Temp Water Temp Dewpoint Dewpoint Depression Visibility Wind Speed Wind Dir Waves Ship Positions

Straumvik

Last reported at 2015-Jun-05 17:13 UTC. Time now 2015-Jul-08 04:21 UTC.
Position N 60°31' E 005°19'.
Warning: this ship's position is 32 days out of date.

Length 50 m; draft 5 m.

Type: Ship. MMSI: 258260000.

Date/timePositionNaut miles runAvg speedWind from/ knotsBaromVisibWave heightAir tempDewpointWater temp
2015-Jun-05 17:13N 60°31' E 005°19'6 0.2
2015-Jun-04 18:15N 60°36' E 005°13'6 1.9
2015-Jun-04 15:19N 60°31' E 005°19'0 0.0
2015-Jun-04 13:16N 60°31' E 005°19'1 0.5
2015-Jun-04 10:24N 60°31' E 005°16'76 2.0
2015-Jun-02 20:33N 59°15' E 005°23'7 6.7
2015-Jun-02 19:33N 59°11' E 005°34'7 7.1
2015-Jun-02 18:33N 59°08' E 005°46'7 6.5
2015-Jun-02 17:33N 59°07' E 005°58'2 0.7
2015-Jun-02 14:33N 59°08' E 006°03'9 9.2
2015-Jun-02 13:33N 59°01' E 005°51'8 7.7
2015-Jun-02 12:33N 58°54' E 005°45'0 0.0
2015-Jun-02 11:33N 58°54' E 005°45'0 0.0
2015-Jun-02 10:33N 58°54' E 005°45'3 2.8
2015-Jun-02 09:33N 58°57' E 005°47'7 7.1
2015-Jun-02 08:33N 59°03' E 005°52'3 2.5
2015-Jun-02 07:33N 59°05' E 005°54'0 0.4
2015-Jun-02 06:33N 59°05' E 005°54'0 0.1
2015-Jun-02 05:33N 59°05' E 005°54'5 5.3
2015-Jun-02 04:33N 59°00' E 005°51'5 4.8
2015-Jun-02 03:33N 58°57' E 005°45'0 0.0
2015-Jun-02 02:33N 58°57' E 005°45'0 0.0
2015-Jun-02 01:33N 58°57' E 005°45'0 0.0
2015-Jun-02 00:33N 58°57' E 005°45'0 0.0
2015-Jun-01 23:33N 58°57' E 005°45'0 0.0
2015-Jun-01 22:33N 58°57' E 005°45'0 0.0
2015-Jun-01 21:33N 58°57' E 005°45'0 0.0
2015-Jun-01 20:33N 58°57' E 005°45'0 0.0
2015-Jun-01 19:33N 58°57' E 005°45'0 0.0
2015-Jun-01 18:33N 58°57' E 005°45'0 0.0
2015-Jun-01 17:33N 58°57' E 005°45'0 0.0
2015-Jun-01 16:33N 58°57' E 005°45'0 0.0
2015-Jun-01 15:33N 58°57' E 005°45'0 0.0
2015-Jun-01 14:33N 58°57' E 005°45'0 0.0
2015-Jun-01 13:33N 58°57' E 005°45'0 0.0
2015-Jun-01 12:33N 58°57' E 005°45'0 0.0
2015-Jun-01 11:33N 58°57' E 005°45'0 0.2
2015-Jun-01 10:33N 58°57' E 005°45'0 0.2
2015-Jun-01 09:33N 58°57' E 005°46'6 6.2
2015-Jun-01 08:33N 59°02' E 005°52'6 5.8
2015-Jun-01 07:33N 59°07' E 005°57'1 1.2
2015-Jun-01 06:28N 59°07' E 006°00'0 0.0
2015-Jun-01 05:33N 59°07' E 006°00'0 0.0
2015-Jun-01 02:32N 59°07' E 006°00'0 0.0
2015-Jun-01 01:33N 59°07' E 006°00'4 3.9
2015-Jun-01 00:33N 59°06' E 005°53'7 7.0
2015-May-31 23:33N 59°09' E 005°40'7 6.9
2015-May-31 22:33N 59°13' E 005°29'  
Track history (hours):
 
Tides and Currents Weather Stations Pressure Air Temp Water Temp Dewpoint Dewpoint Depression Visibility Wind Speed Wind Dir Waves Ship Positions

Straumvik

Last reported at 2015-Jun-05 17:13 UTC. Time now 2015-Jul-08 04:21 UTC.
Position N 60°31' E 005°19'.
Warning: this ship's position is 32 days out of date.

Length 50 m; draft 5 m.

Type: Ship. MMSI: 258260000.

Date/timePositionNaut miles runAvg speedWind from/ knotsBaromVisibWave heightAir tempDewpointWater temp
2015-Jun-05 17:13N 60°31' E 005°19'6 0.2
2015-Jun-04 18:15N 60°36' E 005°13'6 1.9
2015-Jun-04 15:19N 60°31' E 005°19'0 0.0
2015-Jun-04 13:16N 60°31' E 005°19'1 0.5
2015-Jun-04 10:24N 60°31' E 005°16'76 2.0
2015-Jun-02 20:33N 59°15' E 005°23'7 6.7
2015-Jun-02 19:33N 59°11' E 005°34'7 7.1
2015-Jun-02 18:33N 59°08' E 005°46'7 6.5
2015-Jun-02 17:33N 59°07' E 005°58'2 0.7
2015-Jun-02 14:33N 59°08' E 006°03'9 9.2
2015-Jun-02 13:33N 59°01' E 005°51'8 7.7
2015-Jun-02 12:33N 58°54' E 005°45'0 0.0
2015-Jun-02 11:33N 58°54' E 005°45'0 0.0
2015-Jun-02 10:33N 58°54' E 005°45'3 2.8
2015-Jun-02 09:33N 58°57' E 005°47'7 7.1
2015-Jun-02 08:33N 59°03' E 005°52'3 2.5
2015-Jun-02 07:33N 59°05' E 005°54'0 0.4
2015-Jun-02 06:33N 59°05' E 005°54'0 0.1
2015-Jun-02 05:33N 59°05' E 005°54'5 5.3
2015-Jun-02 04:33N 59°00' E 005°51'5 4.8
2015-Jun-02 03:33N 58°57' E 005°45'0 0.0
2015-Jun-02 02:33N 58°57' E 005°45'0 0.0
2015-Jun-02 01:33N 58°57' E 005°45'0 0.0
2015-Jun-02 00:33N 58°57' E 005°45'0 0.0
2015-Jun-01 23:33N 58°57' E 005°45'0 0.0
2015-Jun-01 22:33N 58°57' E 005°45'0 0.0
2015-Jun-01 21:33N 58°57' E 005°45'0 0.0
2015-Jun-01 20:33N 58°57' E 005°45'0 0.0
2015-Jun-01 19:33N 58°57' E 005°45'0 0.0
2015-Jun-01 18:33N 58°57' E 005°45'0 0.0
2015-Jun-01 17:33N 58°57' E 005°45'0 0.0
2015-Jun-01 16:33N 58°57' E 005°45'0 0.0
2015-Jun-01 15:33N 58°57' E 005°45'0 0.0
2015-Jun-01 14:33N 58°57' E 005°45'0 0.0
2015-Jun-01 13:33N 58°57' E 005°45'0 0.0
2015-Jun-01 12:33N 58°57' E 005°45'0 0.0
2015-Jun-01 11:33N 58°57' E 005°45'0 0.2
2015-Jun-01 10:33N 58°57' E 005°45'0 0.2
2015-Jun-01 09:33N 58°57' E 005°46'6 6.2
2015-Jun-01 08:33N 59°02' E 005°52'6 5.8
2015-Jun-01 07:33N 59°07' E 005°57'1 1.2
2015-Jun-01 06:28N 59°07' E 006°00'0 0.0
2015-Jun-01 05:33N 59°07' E 006°00'0 0.0
2015-Jun-01 02:32N 59°07' E 006°00'0 0.0
2015-Jun-01 01:33N 59°07' E 006°00'4 3.9
2015-Jun-01 00:33N 59°06' E 005°53'7 7.0
2015-May-31 23:33N 59°09' E 005°40'7 6.9
2015-May-31 22:33N 59°13' E 005°29'  

Dump ship's entire track history